Time;durP1;ratioP1;P1;durP2;ratioP2;P2;SDS_P1;SDS_P2;PMS_P1;PMS_P2;Temp;Humidity;BMP_temperature;BMP_pressure;BME280_temperature;BME280_humidity;BME280_pressure;Samples;Min_cycle;Max_cycle;Signal;HPM_P1;HPM_P2
2021/06/30 00:00:41;;;;;;;4.32;4.05;;;14.90;99.90;;;15.85;100.00;97556.34;5205854;28;20228;-83
2021/06/30 00:03:19;;;;;;;4.53;4.13;;;14.90;99.90;;;15.76;100.00;97574.97;5205532;28;20676;-82
2021/06/30 00:05:52;;;;;;;5.10;4.68;;;14.90;99.90;;;15.72;100.00;97576.59;5208222;28;20194;-82
2021/06/30 00:08:30;;;;;;;4.72;4.43;;;14.80;99.90;;;15.75;100.00;97576.69;5206125;28;20656;-82
2021/06/30 00:11:04;;;;;;;4.13;3.83;;;14.90;99.90;;;15.82;100.00;97584.63;5205200;28;20244;-82
2021/06/30 00:13:46;;;;;;;4.18;3.78;;;15.00;99.90;;;15.84;100.00;97588.13;5202671;28;20213;-82
2021/06/30 00:16:30;;;;;;;4.28;3.97;;;15.00;99.90;;;15.89;100.00;97589.16;5208067;28;20570;-82
2021/06/30 00:19:11;;;;;;;4.95;4.55;;;15.00;99.90;;;15.96;100.00;97591.06;5206648;28;20201;-83
2021/06/30 00:21:44;;;;;;;4.72;4.18;;;15.10;99.90;;;16.00;100.00;97592.94;5199845;28;20703;-83
2021/06/30 00:24:23;;;;;;;4.63;4.30;;;15.00;99.90;;;15.97;100.00;97593.72;5208057;28;20268;-82
2021/06/30 00:26:56;;;;;;;4.68;3.65;;;15.10;99.90;;;15.96;100.00;97596.22;5207534;28;20560;-83
2021/06/30 00:29:30;;;;;;;4.93;4.53;;;15.00;99.90;;;15.99;100.00;97597.22;5207350;28;20652;-82
2021/06/30 00:32:04;;;;;;;5.70;3.85;;;15.00;99.90;;;16.02;100.00;97599.00;5205776;28;20319;-83
2021/06/30 00:34:42;;;;;;;4.20;3.63;;;15.00;99.90;;;16.05;100.00;97599.09;5207780;28;20277;-82
2021/06/30 00:37:21;;;;;;;3.97;3.58;;;15.00;99.90;;;16.02;100.00;97601.59;5203321;28;20680;-82
2021/06/30 00:39:54;;;;;;;4.40;4.10;;;15.00;99.90;;;16.06;100.00;97602.56;5206624;28;20299;-82
2021/06/30 00:42:32;;;;;;;4.00;3.70;;;15.00;99.90;;;16.08;100.00;97600.91;5207543;28;20221;-83
2021/06/30 00:45:09;;;;;;;3.90;3.60;;;15.10;99.90;;;16.10;100.00;97594.09;5207369;28;20660;-83
2021/06/30 00:47:48;;;;;;;3.95;3.63;;;15.10;99.90;;;16.08;100.00;97590.59;5191771;28;20192;-83
2021/06/30 00:50:26;;;;;;;3.88;3.53;;;15.10;99.90;;;16.12;100.00;97590.75;5207119;28;20270;-82
2021/06/30 00:52:59;;;;;;;4.03;3.83;;;15.20;99.90;;;16.13;100.00;97584.75;5207945;28;20553;-81
2021/06/30 00:55:38;;;;;;;4.30;3.90;;;15.10;99.90;;;16.20;100.00;97591.84;5207210;28;20220;-82
2021/06/30 00:58:16;;;;;;;4.18;3.42;;;15.10;99.90;;;16.24;100.00;97591.94;5207568;28;20672;-83
2021/06/30 01:00:55;;;;;;;4.18;3.78;;;15.10;99.90;;;16.18;100.00;97582.31;5196065;28;20267;-82
2021/06/30 01:03:35;;;;;;;3.70;3.38;;;15.10;99.90;;;16.17;100.00;97584.03;5207846;28;20225;-83
2021/06/30 01:06:13;;;;;;;3.45;3.25;;;15.20;99.90;;;16.26;100.00;97582.56;5203867;28;20213;-82
2021/06/30 01:08:51;;;;;;;4.30;4.00;;;15.20;99.90;;;16.31;100.00;97583.53;5206592;28;20629;-81
2021/06/30 01:11:29;;;;;;;3.78;3.42;;;15.20;99.90;;;16.30;100.00;97574.06;5202661;28;20749;-82
2021/06/30 01:14:07;;;;;;;4.45;3.67;;;15.30;99.90;;;16.26;100.00;97580.84;5207009;28;20269;-82
2021/06/30 01:16:47;;;;;;;4.00;3.70;;;15.30;99.90;;;16.26;100.00;97585.13;5202546;28;20252;-82
2021/06/30 01:19:26;;;;;;;4.45;3.42;;;15.20;99.90;;;16.21;100.00;97588.44;5206581;28;20255;-83
2021/06/30 01:22:06;;;;;;;3.40;3.20;;;15.20;99.90;;;16.20;100.00;97591.84;5206583;28;20264;-83
2021/06/30 01:24:41;;;;;;;4.25;3.92;;;15.20;99.90;;;16.18;100.00;97587.47;5207170;28;20271;-82
2021/06/30 01:27:20;;;;;;;4.93;3.85;;;15.40;99.90;;;16.24;100.00;97597.09;5207206;28;20247;-83
2021/06/30 01:29:59;;;;;;;3.65;3.40;;;15.40;99.90;;;16.21;100.00;97588.44;5195795;28;20724;-82
2021/06/30 01:32:37;;;;;;;3.72;3.42;;;15.40;99.90;;;16.18;100.00;97593.50;5203540;28;20735;-81
2021/06/30 01:35:21;;;;;;;4.43;4.00;;;15.40;99.90;;;16.17;100.00;97589.19;5199737;28;20190;-81
2021/06/30 01:37:59;;;;;;;4.38;3.97;;;15.40;99.90;;;16.13;100.00;97595.06;5205907;28;20213;-81
2021/06/30 01:40:40;;;;;;;3.90;3.60;;;15.30;99.90;;;16.07;100.00;97604.31;5198576;28;20276;-81
2021/06/30 01:43:18;;;;;;;5.35;4.03;;;15.40;99.90;;;16.03;100.00;97600.78;5205879;28;20742;-82
2021/06/30 01:45:58;;;;;;;4.60;4.30;;;15.30;99.90;;;16.01;100.00;97609.28;5207537;28;20222;-81
2021/06/30 01:48:36;;;;;;;4.18;3.88;;;15.30;99.90;;;16.03;100.00;97608.50;5205704;28;20269;-81
2021/06/30 01:51:14;;;;;;;4.43;4.13;;;15.30;99.90;;;16.03;100.00;97605.94;5198616;28;20720;-81
2021/06/30 01:53:47;;;;;;;8.15;5.13;;;15.40;99.90;;;16.06;100.00;97613.75;5205836;28;20252;-81
2021/06/30 01:56:24;;;;;;;5.35;4.95;;;15.40;99.90;;;16.15;100.00;97623.47;5205835;28;20202;-81
2021/06/30 01:59:06;;;;;;;5.85;4.78;;;15.60;99.90;;;16.18;100.00;97631.31;5201180;28;20252;-81
2021/06/30 02:01:45;;;;;;;5.60;4.20;;;15.50;99.90;;;16.19;100.00;97633.91;5205795;28;20879;-81
2021/06/30 02:04:18;;;;;;;4.35;3.97;;;15.50;99.90;;;16.31;100.00;97625.72;5200591;28;20252;-81
2021/06/30 02:06:56;;;;;;;4.20;3.80;;;15.50;99.90;;;16.27;100.00;97641.91;5205907;28;20285;-81
2021/06/30 02:09:35;;;;;;;3.05;2.85;;;15.40;99.90;;;16.23;100.00;97637.50;5205625;28;20190;-81
2021/06/30 02:12:14;;;;;;;3.47;3.10;;;15.30;99.90;;;16.28;100.00;97650.50;5206267;28;20617;-81
2021/06/30 02:14:52;;;;;;;3.00;2.80;;;15.40;99.90;;;16.19;100.00;97646.81;5206028;28;20695;-81
2021/06/30 02:17:32;;;;;;;2.72;2.22;;;15.30;99.90;;;16.08;100.00;97643.06;5204376;28;20280;-81
2021/06/30 02:20:12;;;;;;;3.22;2.72;;;15.20;99.90;;;16.08;100.00;97644.72;5205132;28;20256;-81
2021/06/30 02:22:46;;;;;;;4.45;2.70;;;15.20;99.90;;;16.01;100.00;97642.81;5205307;28;20225;-81
2021/06/30 02:25:28;;;;;;;2.28;2.17;;;15.10;99.90;;;16.02;100.00;97645.41;5199480;28;20218;-81
2021/06/30 02:28:07;;;;;;;3.72;2.33;;;15.10;99.90;;;16.01;100.00;97638.50;5205816;28;20736;-81
2021/06/30 02:30:45;;;;;;;2.78;2.58;;;15.00;99.90;;;15.90;100.00;97627.84;5206139;28;20296;-81
2021/06/30 02:33:23;;;;;;;4.00;2.80;;;15.00;99.90;;;15.85;100.00;97618.22;5207317;28;20285;-81
2021/06/30 02:36:01;;;;;;;2.63;2.38;;;15.00;99.90;;;15.80;100.00;97614.63;5208233;28;20233;-81
2021/06/30 02:38:39;;;;;;;2.45;2.33;;;15.00;99.90;;;15.79;100.00;97610.28;5210425;28;20248;-82
2021/06/30 02:41:18;;;;;;;2.60;2.40;;;15.00;99.90;;;15.72;100.00;97602.38;5203027;28;20214;-81
2021/06/30 02:43:57;;;;;;;2.70;2.55;;;15.00;99.90;;;15.72;100.00;97592.06;5210141;28;20225;-81
2021/06/30 02:46:35;;;;;;;2.65;2.22;;;15.00;99.90;;;15.73;100.00;97586.06;5207984;28;20308;-80
2021/06/30 02:49:08;;;;;;;3.20;2.88;;;15.10;99.90;;;15.77;100.00;97594.78;5206572;28;20222;-81
2021/06/30 02:51:46;;;;;;;2.80;2.60;;;15.10;99.90;;;15.89;100.00;97630.41;5207179;28;20241;-81
2021/06/30 02:54:24;;;;;;;3.33;2.78;;;15.10;99.90;;;15.87;100.00;97637.19;5208851;28;20183;-80
2021/06/30 02:57:02;;;;;;;2.55;2.35;;;15.10;99.90;;;15.80;100.00;97630.97;5205754;28;20343;-81
2021/06/30 02:59:42;;;;;;;2.53;2.40;;;15.10;99.90;;;15.75;100.00;97637.66;5208915;28;20217;-81
2021/06/30 03:02:20;;;;;;;2.92;2.30;;;15.10;99.90;;;15.82;100.00;97642.19;5209203;28;20244;-81
2021/06/30 03:04:53;;;;;;;2.60;2.30;;;15.00;99.90;;;15.85;100.00;97649.16;5208725;28;20644;-82
2021/06/30 03:07:31;;;;;;;2.13;2.03;;;14.90;99.90;;;15.81;100.00;97643.03;5209820;28;20214;-81
2021/06/30 03:10:13;;;;;;;2.42;2.33;;;14.90;99.90;;;15.76;100.00;97640.28;5208841;28;20221;-81
2021/06/30 03:12:51;;;;;;;2.38;2.20;;;14.80;99.90;;;15.59;100.00;97649.13;5209003;28;20300;-81
2021/06/30 03:15:31;;;;;;;2.72;2.42;;;14.80;99.90;;;15.53;100.00;97651.47;5209905;28;20186;-81
2021/06/30 03:18:09;;;;;;;2.92;2.40;;;14.80;99.90;;;15.58;100.00;97649.06;5210022;28;20189;-81
2021/06/30 03:20:42;;;;;;;2.50;2.40;;;14.80;99.90;;;15.57;100.00;97645.63;5209430;28;20304;-81
2021/06/30 03:23:20;;;;;;;2.92;2.70;;;14.80;99.90;;;15.67;100.00;97649.38;5209215;28;20214;-82
2021/06/30 03:25:58;;;;;;;2.45;2.22;;;14.90;99.90;;;15.64;100.00;97652.72;5208621;28;20282;-81
2021/06/30 03:28:36;;;;;;;2.42;2.22;;;14.80;99.90;;;15.60;100.00;97653.47;5203399;28;20237;-82
2021/06/30 03:31:10;;;;;;;2.55;2.20;;;14.80;99.90;;;15.60;100.00;97655.16;5208680;28;20263;-81
2021/06/30 03:33:48;;;;;;;2.72;2.53;;;14.80;99.90;;;15.59;100.00;97649.13;5208198;28;20256;-81
2021/06/30 03:36:27;;;;;;;2.58;2.38;;;14.90;99.90;;;15.63;100.00;97653.56;5207902;28;20288;-81
2021/06/30 03:39:05;;;;;;;2.42;2.10;;;14.90;99.90;;;15.65;100.00;97657.06;5210171;28;20265;-82
2021/06/30 03:41:43;;;;;;;2.35;2.15;;;14.90;99.90;;;15.69;100.00;97645.19;5203423;28;20304;-82
2021/06/30 03:44:21;;;;;;;2.40;2.20;;;14.90;99.90;;;15.66;100.00;97643.34;5208072;28;20222;-81
2021/06/30 03:47:01;;;;;;;2.47;2.35;;;14.90;99.90;;;15.64;100.00;97649.28;5210040;28;20233;-81
2021/06/30 03:49:39;;;;;;;3.00;2.45;;;14.90;99.90;;;15.61;100.00;97644.03;5208825;28;20292;-81
2021/06/30 03:52:17;;;;;;;2.40;2.20;;;14.90;99.90;;;15.62;100.00;97646.63;5209235;28;20189;-82
2021/06/30 03:54:50;;;;;;;2.78;2.58;;;14.80;99.90;;;15.61;100.00;97654.34;5207786;28;20244;-82
2021/06/30 03:57:28;;;;;;;2.60;2.40;;;14.80;99.90;;;15.62;100.00;97646.63;5209986;28;20283;-84
2021/06/30 04:00:09;;;;;;;2.45;2.30;;;14.80;99.90;;;15.67;100.00;97652.81;5220304;28;20221;-84
2021/06/30 04:03:01;;;;;;;;;;;;;;;;;;;;;
2021/06/30 04:06:01;;;;;;;2.30;2.13;;;14.80;99.90;;;15.65;100.00;97654.50;5208461;28;20213;-84
2021/06/30 04:09:29;;;;;;;;;;;;;;;;;;;;;
2021/06/30 04:12:46;;;;;;;2.20;2.10;;;14.80;99.90;;;15.74;100.00;97659.13;5116223;29;20207;-86
2021/06/30 04:15:51;;;;;;;2.55;2.30;;;14.80;99.90;;;15.72;100.00;97663.34;5202779;28;20201;-87
2021/06/30 04:21:52;;;;;;;2.30;2.20;;;14.80;99.90;;;15.77;100.00;97654.94;5224451;22;20232;-68
2021/06/30 04:24:30;;;;;;;2.50;2.40;;;14.80;99.90;;;15.72;100.00;97653.91;5221198;28;20233;-68
2021/06/30 04:27:08;;;;;;;2.60;2.50;;;14.80;99.90;;;15.70;100.00;97655.53;5219434;28;20233;-63
2021/06/30 04:29:46;;;;;;;3.17;2.30;;;14.80;99.90;;;15.72;100.00;97647.88;5218469;28;20235;-63
2021/06/30 04:32:24;;;;;;;2.22;2.10;;;14.80;99.90;;;15.73;100.00;97655.63;5215426;28;20308;-63
2021/06/30 04:35:05;;;;;;;3.10;2.45;;;14.80;99.90;;;15.73;100.00;97647.91;5223338;28;20278;-63
2021/06/30 04:37:43;;;;;;;2.95;2.40;;;14.90;99.90;;;15.79;100.00;97654.97;5219111;28;20601;-62
2021/06/30 04:40:21;;;;;;;2.15;1.95;;;14.90;99.90;;;15.81;100.00;97642.16;5220077;28;20290;-62
2021/06/30 04:42:59;;;;;;;2.22;2.08;;;14.90;99.90;;;15.81;100.00;97647.31;5215713;28;20288;-63
2021/06/30 04:45:37;;;;;;;2.78;2.28;;;14.80;99.90;;;15.83;100.00;97641.38;5214857;28;20280;-63
2021/06/30 04:48:15;;;;;;;2.42;1.90;;;14.70;99.90;;;15.74;100.00;97646.22;5216381;28;20202;-63
2021/06/30 04:50:55;;;;;;;2.20;2.00;;;14.60;99.90;;;15.72;100.00;97653.03;5217626;28;20276;-62
2021/06/30 04:53:33;;;;;;;3.30;2.17;;;14.60;99.90;;;15.69;100.00;97653.81;5221972;28;20253;-63
2021/06/30 04:56:11;;;;;;;2.58;2.20;;;14.70;99.90;;;15.66;100.00;97647.66;5210020;28;20236;-63
2021/06/30 04:58:49;;;;;;;2.30;2.03;;;14.60;99.90;;;15.67;100.00;97647.69;5209205;28;20248;-63
2021/06/30 05:01:27;;;;;;;1.95;1.85;;;14.60;99.90;;;15.74;100.00;97647.09;5211414;28;20287;-62
2021/06/30 05:04:05;;;;;;;1.60;1.55;;;14.60;99.90;;;15.70;100.00;97644.38;5214911;28;20291;-63
2021/06/30 05:06:45;;;;;;;2.00;1.80;;;14.60;99.90;;;15.80;100.00;97650.72;5221320;28;20210;-62
2021/06/30 05:09:23;;;;;;;1.90;1.58;;;14.70;99.90;;;15.82;100.00;97643.88;5221738;28;20325;-62
2021/06/30 05:12:01;;;;;;;1.90;1.80;;;14.60;99.90;;;15.94;100.00;97646.91;5219786;28;20232;-63
2021/06/30 05:14:39;;;;;;;1.52;1.40;;;14.80;99.90;;;15.96;99.99;97652.94;5218472;28;20287;-63
2021/06/30 05:17:17;;;;;;;1.77;1.65;;;14.80;99.90;;;16.24;100.00;97646.97;5212478;28;20652;-63
2021/06/30 05:19:54;;;;;;;1.40;1.30;;;15.10;99.90;;;16.44;97.55;97653.63;5221730;28;20256;-63
2021/06/30 05:22:34;;;;;;;1.90;1.80;;;15.20;99.90;;;16.71;97.92;97646.66;5217019;28;20336;-63
2021/06/30 05:25:13;;;;;;;1.75;1.58;;;15.30;99.90;;;16.72;96.50;97646.72;5213953;28;20275;-62
2021/06/30 05:27:51;;;;;;;1.70;1.60;;;15.30;99.90;;;16.79;97.61;97650.38;5215316;28;20229;-63
2021/06/30 05:30:29;;;;;;;2.10;1.80;;;15.40;99.90;;;16.67;96.86;97656.91;5223231;28;20232;-63
2021/06/30 05:33:07;;;;;;;1.58;1.48;;;15.30;99.90;;;16.59;96.18;97654.91;5221237;28;20217;-61
2021/06/30 05:35:45;;;;;;;1.40;1.40;;;15.20;99.90;;;16.48;97.56;97659.75;5219815;28;20282;-63
2021/06/30 05:38:25;;;;;;;1.60;1.50;;;15.10;99.90;;;16.45;98.24;97662.22;5219716;28;20733;-62
2021/06/30 05:41:04;;;;;;;2.70;1.33;;;15.10;99.90;;;16.43;97.98;97664.78;5216388;28;20292;-62
2021/06/30 05:43:42;;;;;;;1.60;1.50;;;15.00;99.90;;;16.43;98.71;97671.66;5220490;28;20371;-63
2021/06/30 05:46:20;;;;;;;2.17;1.40;;;15.10;99.90;;;16.36;97.99;97670.56;5223808;28;20625;-63
2021/06/30 05:48:58;;;;;;;1.75;1.55;;;15.10;99.90;;;16.42;99.47;97664.72;5223115;28;20292;-62
2021/06/30 05:51:36;;;;;;;1.73;1.65;;;15.10;99.90;;;16.54;98.96;97664.22;5224243;28;20243;-62
2021/06/30 05:54:15;;;;;;;1.95;1.77;;;15.10;99.90;;;16.63;99.04;97662.81;5222143;28;20300;-63
2021/06/30 05:56:53;;;;;;;1.52;1.42;;;15.20;99.90;;;16.80;97.64;97662.47;5218710;28;20214;-63
2021/06/30 05:59:31;;;;;;;1.40;1.30;;;15.40;99.90;;;16.94;95.35;97660.25;5222524;28;20288;-62
2021/06/30 06:02:10;;;;;;;1.38;1.27;;;15.50;99.90;;;17.05;94.87;97664.94;5215654;28;20303;-63
2021/06/30 06:04:48;;;;;;;1.50;1.40;;;15.60;99.90;;;17.10;92.71;97667.63;5219205;28;20288;-64
2021/06/30 06:07:26;;;;;;;1.20;1.20;;;15.60;99.90;;;17.34;94.20;97665.75;5213637;28;20259;-64
2021/06/30 06:10:08;;;;;;;1.30;1.30;;;15.80;99.90;;;17.67;93.96;97664.88;5213644;28;20212;-63
2021/06/30 06:12:46;;;;;;;1.42;1.40;;;16.00;99.90;;;17.99;93.18;97660.53;5219232;28;20308;-63
2021/06/30 06:15:24;;;;;;;1.38;1.27;;;16.20;99.90;;;18.03;88.60;97658.94;5217869;28;20329;-62
2021/06/30 06:18:02;;;;;;;1.30;1.20;;;16.40;99.90;;;17.89;85.57;97663.75;5221032;28;20287;-62
2021/06/30 06:20:40;;;;;;;1.33;1.23;;;16.40;99.90;;;17.76;86.94;97656.47;5214638;28;20210;-62
2021/06/30 06:23:18;;;;;;;1.55;1.45;;;16.30;99.90;;;17.94;90.28;97662.16;5231669;28;20672;-62
2021/06/30 06:25:58;;;;;;;1.95;1.08;;;16.40;99.90;;;18.07;91.18;97652.97;5227926;28;20642;-63
2021/06/30 06:28:36;;;;;;;1.17;1.17;;;16.60;99.90;;;18.17;86.53;97654.06;5224332;28;20288;-63
2021/06/30 06:31:15;;;;;;;1.50;1.40;;;16.70;99.90;;;18.37;86.86;97657.13;5209538;28;20217;-63
2021/06/30 06:33:53;;;;;;;1.30;1.20;;;16.90;99.90;;;18.60;86.31;97655.03;5220626;28;20200;-63
2021/06/30 06:36:31;;;;;;;1.25;1.15;;;17.10;99.90;;;18.60;79.80;97660.22;5216451;28;20284;-62
2021/06/30 06:39:09;;;;;;;1.40;1.30;;;17.10;99.90;;;18.46;78.62;97650.44;5220884;28;20643;-63
2021/06/30 06:41:49;;;;;;;1.30;1.30;;;17.20;99.90;;;18.63;83.57;97660.31;5217445;28;20330;-62
2021/06/30 06:44:27;;;;;;;1.35;1.27;;;17.20;99.90;;;18.87;78.97;97653.09;5213802;28;20269;-63
2021/06/30 06:47:05;;;;;;;1.27;1.20;;;17.40;99.90;;;19.32;78.30;97654.88;5214792;28;20265;-62
2021/06/30 06:49:43;;;;;;;1.40;1.27;;;17.80;99.90;;;19.38;77.46;97656.72;5210465;28;20733;-63
2021/06/30 06:52:21;;;;;;;1.40;1.30;;;17.80;99.90;;;19.40;78.36;97657.63;5223123;28;20217;-63
2021/06/30 06:55:00;;;;;;;1.40;1.30;;;17.70;99.90;;;19.48;78.30;97652.56;5220376;28;20288;-63
2021/06/30 06:57:39;;;;;;;1.42;1.30;;;17.70;99.90;;;19.36;78.26;97656.66;5219152;28;20237;-62
2021/06/30 07:00:19;;;;;;;1.35;1.25;;;17.80;99.90;;;19.35;75.60;97651.47;5211067;28;20233;-64
2021/06/30 07:02:57;;;;;;;1.27;1.27;;;17.90;99.90;;;19.55;75.80;97649.25;5219903;28;20360;-62
2021/06/30 07:05:35;;;;;;;1.25;1.25;;;18.00;99.90;;;19.74;78.40;97650.47;5222603;28;20237;-62
2021/06/30 07:08:13;;;;;;;1.27;1.27;;;18.10;99.90;;;19.66;76.99;97654.63;5222364;28;20243;-63
2021/06/30 07:10:51;;;;;;;2.00;1.35;;;17.90;99.90;;;19.79;79.30;97657.47;5222776;28;20335;-62
2021/06/30 07:13:30;;;;;;;1.35;1.30;;;18.10;99.90;;;20.48;74.82;97652.50;5230965;28;20700;-62
2021/06/30 07:16:10;;;;;;;1.90;1.20;;;18.80;99.90;;;20.88;69.62;97634.91;5227161;28;20711;-63
2021/06/30 07:18:48;;;;;;;1.23;1.13;;;19.20;99.90;;;21.18;67.44;97643.97;5219886;28;20257;-62
2021/06/30 07:21:26;;;;;;;1.10;1.10;;;19.40;99.90;;;21.95;65.95;97646.50;5219274;28;20265;-63
2021/06/30 07:24:06;;;;;;;1.08;1.05;;;20.20;99.90;;;22.57;66.40;97641.75;5212611;28;20627;-63
2021/06/30 07:26:44;;;;;;;1.15;0.90;;;20.40;99.90;;;22.38;59.17;97639.06;5221149;28;20241;-63
2021/06/30 07:29:24;;;;;;;1.35;1.20;;;20.20;99.90;;;21.96;63.96;97637.81;5231492;28;20286;-63
2021/06/30 07:32:02;;;;;;;2.40;1.05;;;19.80;99.90;;;21.59;64.48;97632.28;5209546;28;20309;-63
2021/06/30 07:34:40;;;;;;;1.10;1.00;;;19.40;99.90;;;20.92;66.46;97636.72;5218267;28;20674;-63
2021/06/30 07:37:18;;;;;;;1.10;1.10;;;19.10;99.90;;;20.64;69.54;97646.72;5228557;28;20279;-63
2021/06/30 07:39:56;;;;;;;1.67;1.20;;;18.90;99.90;;;20.37;68.73;97641.09;5216735;28;20233;-63
2021/06/30 07:42:35;;;;;;;1.30;1.20;;;18.70;99.90;;;20.15;73.14;97650.31;5214163;28;20342;-63
2021/06/30 07:45:14;;;;;;;1.20;1.10;;;18.40;99.90;;;20.09;71.19;97644.97;5226719;28;20271;-63
2021/06/30 07:47:47;;;;;;;1.60;1.50;;;18.30;99.90;;;20.41;68.25;97645.50;5218103;28;20619;-63
2021/06/30 07:50:21;;;;;;;1.15;1.10;;;18.70;99.90;;;20.85;68.37;97642.66;5205949;28;20212;-63
2021/06/30 07:52:54;;;;;;;1.10;1.10;;;19.20;99.90;;;21.40;63.41;97648.53;5220683;28;20224;-62
2021/06/30 07:55:28;;;;;;;1.10;1.05;;;19.70;99.90;;;22.13;62.26;97644.91;5212379;28;20674;-67
2021/06/30 07:58:01;;;;;;;0.80;0.80;;;20.50;99.90;;;22.34;57.21;97650.28;5217680;28;20194;-63
2021/06/30 08:00:36;;;;;;;1.23;1.13;;;20.70;99.90;;;22.65;56.98;97642.69;5217894;28;20210;-63
2021/06/30 08:03:09;;;;;;;1.13;1.02;;;21.00;99.90;;;22.87;55.96;97643.69;5210807;28;20208;-63
2021/06/30 08:05:42;;;;;;;1.17;1.05;;;21.20;99.90;;;23.48;56.24;97640.44;5217549;28;20205;-62
2021/06/30 08:08:15;;;;;;;0.93;0.93;;;21.40;99.90;;;23.79;54.33;97647.50;5217970;28;20207;-63
2021/06/30 08:10:49;;;;;;;0.85;0.80;;;21.60;99.90;;;24.27;53.00;97637.94;5210435;28;20297;-63
2021/06/30 08:13:22;;;;;;;2.05;0.98;;;22.20;99.90;;;25.09;50.25;97636.00;5215365;28;20274;-61
2021/06/30 08:15:57;;;;;;;1.30;1.00;;;22.70;99.90;;;25.71;48.33;97635.69;5222832;28;20293;-61
2021/06/30 08:18:30;;;;;;;0.98;0.98;;;23.00;99.90;;;26.14;47.17;97636.28;5212117;28;20211;-61
2021/06/30 08:21:03;;;;;;;1.60;1.02;;;23.30;99.90;;;26.24;46.26;97640.56;5221152;28;20232;-63
2021/06/30 08:23:36;;;;;;;0.80;0.80;;;23.50;99.90;;;25.54;48.16;97639.28;5219919;28;20657;-62
2021/06/30 08:26:12;;;;;;;0.90;0.90;;;22.90;99.90;;;25.28;47.25;97638.56;5211926;28;20201;-62
2021/06/30 08:28:45;;;;;;;0.98;0.98;;;22.70;99.90;;;25.06;47.55;97637.75;5209140;28;20673;-62
2021/06/30 08:31:20;;;;;;;1.60;0.80;;;22.80;99.90;;;25.26;47.81;97635.09;5217306;28;20221;-62
2021/06/30 08:33:53;;;;;;;0.75;0.75;;;22.80;99.90;;;25.02;48.19;97636.91;5218114;28;20691;-62
2021/06/30 08:36:26;;;;;;;0.70;0.70;;;22.60;99.90;;;24.63;48.99;97641.38;5220489;28;20227;-62
2021/06/30 08:38:59;;;;;;;0.98;0.80;;;22.30;99.90;;;24.04;50.00;97643.16;5232224;28;20203;-62
2021/06/30 08:41:32;;;;;;;1.10;1.00;;;21.90;99.90;;;23.67;51.35;97643.97;5217870;28;20217;-62
2021/06/30 08:44:06;;;;;;;0.80;0.80;;;21.50;99.90;;;23.51;52.11;97637.84;5224657;28;20698;-62
2021/06/30 08:46:41;;;;;;;0.82;0.82;;;21.50;99.90;;;23.33;51.76;97639.53;5224293;28;20227;-62
2021/06/30 08:49:17;;;;;;;1.30;0.80;;;21.20;99.90;;;23.06;52.90;97640.28;5222421;28;20754;-63
2021/06/30 08:51:52;;;;;;;1.00;1.00;;;21.00;99.90;;;22.88;52.72;97638.44;5219219;28;20228;-62
2021/06/30 08:54:26;;;;;;;0.90;0.90;;;20.80;99.90;;;22.73;52.69;97643.59;5220299;28;20392;-62
2021/06/30 08:57:00;;;;;;;1.88;1.15;;;20.60;99.90;;;22.23;55.27;97646.72;5223884;28;20216;-62
2021/06/30 08:59:34;;;;;;;1.13;1.00;;;20.40;99.90;;;21.98;58.83;97646.53;5226886;28;20204;-62
2021/06/30 09:02:08;;;;;;;1.23;1.13;;;20.10;99.90;;;21.43;63.38;97652.91;5216737;28;20683;-62
2021/06/30 09:04:43;;;;;;;1.20;1.20;;;19.70;99.90;;;21.17;65.06;97655.19;5226331;28;20193;-62
2021/06/30 09:07:16;;;;;;;1.00;1.00;;;19.40;99.90;;;20.74;67.44;97654.63;5225103;28;20192;-61
2021/06/30 09:09:50;;;;;;;1.05;1.02;;;19.20;99.90;;;20.57;65.84;97652.69;5218188;28;20209;-62
2021/06/30 09:12:38;;;;;;;1.15;1.00;;;19.00;99.90;;;20.50;67.03;97658.63;5214518;28;20232;-62
2021/06/30 09:15:18;;;;;;;1.17;1.15;;;18.80;99.90;;;20.42;66.39;97665.41;5214755;28;20706;-62
2021/06/30 09:17:52;;;;;;;1.10;1.10;;;19.00;99.90;;;20.89;64.73;97660.06;5216363;28;20648;-62
2021/06/30 09:20:25;;;;;;;1.48;1.00;;;19.60;99.90;;;21.37;61.72;97656.31;5206511;28;20205;-62
2021/06/30 09:22:58;;;;;;;1.42;1.08;;;20.20;99.90;;;21.84;61.56;97657.69;5212708;28;20226;-62
2021/06/30 09:25:35;;;;;;;1.00;1.00;;;20.90;99.90;;;22.18;60.33;97653.66;5207956;28;20203;-63
2021/06/30 09:28:18;;;;;;;0.85;0.85;;;21.20;99.90;;;22.40;58.71;97645.13;5204719;28;20197;-63
2021/06/30 09:31:03;;;;;;;1.00;1.00;;;21.30;99.90;;;22.58;58.25;97649.59;5217818;28;20190;-63
2021/06/30 09:33:52;;;;;;;0.98;0.98;;;21.50;99.90;;;22.93;57.81;97652.38;5210087;28;20211;-63
2021/06/30 09:36:27;;;;;;;1.05;0.98;;;22.10;99.90;;;23.25;57.74;97659.50;5228964;28;20229;-62
2021/06/30 09:39:09;;;;;;;0.90;0.90;;;22.40;99.90;;;23.46;54.74;97644.78;5232414;28;20702;-62
2021/06/30 09:41:44;;;;;;;1.38;0.90;;;22.60;99.90;;;23.56;53.77;97650.03;5216170;28;20223;-63
2021/06/30 09:44:20;;;;;;;1.02;0.90;;;22.80;99.90;;;23.66;52.60;97639.59;5213233;28;20193;-63
2021/06/30 09:46:55;;;;;;;1.05;0.95;;;22.70;99.90;;;23.79;52.07;97647.50;5211535;28;20201;-63
2021/06/30 09:49:30;;;;;;;1.10;1.10;;;22.40;99.90;;;23.60;52.89;97641.31;5214553;28;20208;-62
2021/06/30 09:52:10;;;;;;;1.05;0.90;;;22.20;99.90;;;23.24;52.71;97639.50;5215081;28;20212;-62
2021/06/30 09:54:46;;;;;;;0.90;0.90;;;21.70;99.90;;;23.27;53.64;97639.53;5209677;28;20292;-62
2021/06/30 09:57:19;;;;;;;1.00;1.00;;;22.10;99.90;;;23.38;50.92;97629.13;5214826;28;20224;-62
2021/06/30 09:59:53;;;;;;;0.85;0.85;;;22.30;99.90;;;23.47;50.13;97633.50;5210958;28;20212;-62
2021/06/30 10:02:40;;;;;;;0.93;0.90;;;22.50;99.80;;;23.64;50.52;97637.00;5208855;28;20555;-63
2021/06/30 10:05:14;;;;;;;0.90;0.90;;;22.60;99.90;;;23.50;52.13;97633.50;5220874;28;20569;-62
2021/06/30 10:07:56;;;;;;;3.45;1.20;;;22.40;99.90;;;22.82;57.65;97658.41;5220506;28;20201;-62
2021/06/30 10:10:29;;;;;;;3.55;1.30;;;21.90;99.90;;;22.10;63.65;97670.91;5220782;28;20201;-61
2021/06/30 10:13:02;;;;;;;1.63;1.02;;;21.00;99.90;;;20.82;68.21;97679.00;5216970;28;20233;-61
2021/06/30 10:15:36;;;;;;;2.35;1.35;;;20.10;99.90;;;19.98;73.95;97683.75;5219622;28;20202;-62
2021/06/30 10:18:09;;;;;;;1.20;1.20;;;19.10;99.90;;;19.38;78.47;97686.94;5219536;28;20598;-62
2021/06/30 10:20:46;;;;;;;1.50;1.05;;;18.60;99.90;;;19.17;83.66;97680.47;5213130;28;20205;-62
2021/06/30 10:23:19;;;;;;;1.35;1.30;;;18.20;99.90;;;18.92;84.73;97684.28;5221104;28;20778;-62
2021/06/30 10:25:52;;;;;;;1.42;1.33;;;18.00;99.90;;;18.72;87.22;97686.41;5213519;28;20201;-62
2021/06/30 10:28:29;;;;;;;1.30;1.20;;;17.90;99.90;;;18.78;88.54;97688.28;5221513;28;20601;-62
2021/06/30 10:31:02;;;;;;;1.45;1.35;;;17.90;99.90;;;18.91;89.79;97692.88;5223779;28;20197;-62
2021/06/30 10:33:40;;;;;;;1.30;1.30;;;18.00;99.90;;;18.93;88.00;97685.16;5214714;28;20202;-61
2021/06/30 10:36:14;;;;;;;1.48;1.30;;;17.90;99.90;;;18.93;89.74;97678.25;5219595;28;20246;-62
2021/06/30 10:38:55;;;;;;;1.30;1.20;;;18.00;99.90;;;18.73;87.28;97677.78;5214434;28;20200;-62
2021/06/30 10:41:43;;;;;;;1.58;1.48;;;18.10;99.90;;;19.02;92.48;97681.03;5218940;28;20596;-62
2021/06/30 10:44:18;;;;;;;1.67;1.35;;;18.50;99.90;;;19.25;88.16;97673.72;5211205;28;20193;-61
2021/06/30 10:46:54;;;;;;;1.42;1.33;;;18.70;99.90;;;19.28;88.92;97676.38;5227304;28;20196;-62
2021/06/30 10:49:30;;;;;;;1.50;1.40;;;18.80;99.90;;;19.46;88.68;97677.56;5218022;28;20200;-62
2021/06/30 10:52:05;;;;;;;1.70;1.42;;;18.90;99.90;;;19.63;85.45;97671.00;5222819;28;20230;-62
2021/06/30 10:54:42;;;;;;;1.70;1.42;;;18.90;99.90;;;19.75;86.87;97676.44;5227864;28;20201;-61
2021/06/30 10:57:30;;;;;;;1.42;1.40;;;19.00;99.90;;;19.87;85.04;97678.38;5213383;28;20588;-62
2021/06/30 11:00:22;;;;;;;1.50;1.40;;;19.10;99.90;;;19.94;83.88;97681.94;5221855;28;20657;-62
2021/06/30 11:03:29;;;;;;;1.40;1.30;;;19.10;99.90;;;19.69;83.11;97681.53;5221714;28;20210;-62
2021/06/30 11:06:29;;;;;;;1.35;1.25;;;19.00;99.90;;;19.22;82.56;97685.75;5225201;28;20200;-62